PADK/ADK METAR and TAF weather

Enter ICAO airport designator
Station Type Date Time Source
PADK METAR 2019/02/18 04:56 UTC NOAA

PADK 180456Z AUTO 26031G45KT 10SM BKN035 OVC043 03/M01 A2950 RMK AO2 PK WND 27047/0420 SLP989 T00331006


Station Type Date Time Source
PADK Decoded METAR 2019/02/18 04:56 UTC NOAA

Adak Island, Adak Airport, AK, United States (PADK) 51-52-40N 176-38-45W 4M
Feb 17, 2019 - 11:56 PM EST / 2019.02.18 0456 UTC
Wind: from the W (260 degrees) at 36 MPH (31 KT) gusting to 52 MPH (45 KT):0
Visibility: 10 mile(s):0
Sky conditions: overcast
Temperature: 37.9 F (3.3 C)
Dew Point: 30.9 F (-0.6 C)
Relative Humidity: 75%
Pressure (altimeter): 29.5 in. Hg (998 hPa)
ob: PADK 180456Z AUTO 26031G45KT 10SM BKN035 OVC043 03/M01 A2950 RMK AO2 PK WND 27047/0420 SLP989 T00331006
cycle: 5

Station Type Date Time Source
PADK TAF 2007/04/07 12:54 UTC NOAA

TAF PADK 070404 33010G15KT 9999 FEW025 BKN030 OVC050 QNH2900INS T03/00Z TM01/18Z COR 1205 LAST NO
AMDS AFT 0712;


Example: see airport list